createdAt,value
2023-01-07T00:01:18.689Z,36.58
2023-01-07T00:03:46.677Z,30.60
2023-01-07T00:06:22.108Z,37.60
2023-01-07T00:08:50.850Z,34.65
2023-01-07T00:11:20.181Z,38.38
2023-01-07T00:13:49.351Z,36.85
2023-01-07T00:16:18.348Z,29.02
2023-01-07T00:18:45.246Z,32.95
2023-01-07T00:21:16.519Z,36.80
2023-01-07T00:23:44.802Z,32.80
2023-01-07T00:26:17.210Z,34.15
2023-01-07T00:28:45.496Z,35.17
2023-01-07T00:31:17.312Z,39.95
2023-01-07T00:34:06.846Z,31.67
2023-01-07T00:36:45.588Z,28.25
2023-01-07T00:39:18.657Z,32.63
2023-01-07T00:42:04.868Z,39.30
2023-01-07T00:44:32.212Z,39.03
2023-01-07T00:47:00.072Z,37.97
2023-01-07T00:49:27.404Z,31.73
2023-01-07T00:51:54.255Z,35.78
2023-01-07T00:54:20.989Z,39.10
2023-01-07T00:56:47.746Z,34.38
2023-01-07T00:59:14.428Z,37.97
2023-01-07T01:01:41.250Z,40.80
2023-01-07T01:04:08.246Z,33.42
2023-01-07T01:06:35.084Z,24.80
2023-01-07T01:09:01.773Z,36.40
2023-01-07T01:11:28.420Z,40.95
2023-01-07T01:13:55.083Z,27.08
2023-01-07T01:16:21.887Z,36.53
2023-01-07T01:18:48.601Z,40.30
2023-01-07T01:21:16.426Z,33.28
2023-01-07T01:23:43.884Z,26.05
2023-01-07T01:26:18.431Z,42.70
2023-01-07T01:28:45.616Z,30.27
2023-01-07T01:31:13.539Z,34.55
2023-01-07T01:33:40.228Z,27.70
2023-01-07T01:36:10.108Z,30.45
2023-01-07T01:38:37.426Z,30.95
2023-01-07T01:41:04.494Z,33.15
2023-01-07T01:43:39.862Z,34.92
2023-01-07T01:46:17.517Z,43.30
2023-01-07T01:48:51.986Z,28.30
2023-01-07T01:51:21.816Z,33.40
2023-01-07T01:53:50.811Z,35.88
2023-01-07T01:56:21.050Z,36.80
2023-01-07T01:58:53.301Z,34.85
2023-01-07T02:01:20.223Z,40.60
2023-01-07T02:03:48.307Z,43.72
2023-01-07T02:06:25.060Z,28.55
2023-01-07T02:08:52.012Z,33.80
2023-01-07T02:11:41.798Z,32.65
2023-01-07T02:14:33.425Z,29.88
2023-01-07T02:17:11.557Z,29.92
2023-01-07T02:19:51.004Z,36.08
2023-01-07T02:22:52.894Z,39.42
2023-01-07T02:28:24.723Z,29.02
2023-01-07T02:31:20.418Z,34.97
2023-01-07T02:33:51.244Z,29.10
2023-01-07T02:36:44.963Z,27.05
2023-01-07T02:39:37.302Z,34.15
2023-01-07T02:42:38.929Z,34.65
2023-01-07T02:45:05.700Z,36.67
2023-01-07T02:47:38.674Z,18.90
2023-01-07T02:50:07.148Z,25.83
2023-01-07T02:52:35.473Z,30.63
2023-01-07T02:55:22.265Z,28.60
2023-01-07T02:58:01.385Z,29.73
2023-01-07T03:00:43.141Z,26.40
2023-01-07T03:03:28.232Z,38.45
2023-01-07T03:06:12.922Z,33.38
2023-01-07T03:08:46.367Z,29.95
2023-01-07T03:11:13.701Z,23.52
2023-01-07T03:13:49.195Z,31.17
2023-01-07T03:16:27.692Z,18.63
2023-01-07T03:19:00.995Z,25.90
2023-01-07T03:21:29.619Z,21.15
2023-01-07T03:23:58.517Z,23.60
2023-01-07T03:26:30.981Z,34.47
2023-01-07T03:29:00.841Z,26.33
2023-01-07T03:31:29.189Z,25.35
2023-01-07T03:34:04.385Z,29.00
2023-01-07T03:36:42.307Z,32.38
2023-01-07T03:39:11.334Z,20.67
2023-01-07T03:41:57.912Z,39.50
2023-01-07T03:44:24.677Z,23.60
2023-01-07T03:46:52.029Z,33.00
2023-01-07T03:49:19.087Z,36.22
2023-01-07T03:51:46.614Z,33.15
2023-01-07T03:54:13.250Z,44.78
2023-01-07T03:56:39.913Z,37.22
2023-01-07T03:59:06.575Z,28.90
2023-01-07T04:01:33.366Z,29.15
2023-01-07T04:04:03.008Z,18.88
2023-01-07T04:06:30.244Z,33.92
2023-01-07T04:08:56.906Z,40.00
2023-01-07T04:11:23.679Z,26.05
2023-01-07T04:13:50.388Z,23.33
2023-01-07T04:16:17.074Z,35.70
2023-01-07T04:18:43.718Z,36.47
2023-01-07T04:21:10.388Z,27.48
2023-01-07T04:23:37.116Z,30.30
2023-01-07T04:26:04.044Z,32.28
2023-01-07T04:28:30.672Z,25.58
2023-01-07T04:30:59.655Z,28.05
2023-01-07T04:33:26.815Z,24.60
2023-01-07T04:35:53.592Z,32.47
2023-01-07T04:38:20.245Z,33.63
2023-01-07T04:40:46.901Z,25.10
2023-01-07T04:43:13.547Z,26.40
2023-01-07T04:45:40.251Z,23.05
2023-01-07T04:48:07.110Z,33.72
2023-01-07T04:50:33.817Z,23.33
2023-01-07T04:53:00.456Z,34.42
2023-01-07T04:55:27.142Z,30.67
2023-01-07T04:57:53.821Z,20.45
2023-01-07T05:00:20.525Z,21.60
2023-01-07T05:02:47.182Z,27.15
2023-01-07T05:05:13.866Z,25.15
2023-01-07T05:07:40.644Z,18.00
2023-01-07T05:10:08.005Z,28.17
2023-01-07T05:12:35.949Z,24.83
2023-01-07T05:15:04.015Z,29.35
2023-01-07T05:17:30.680Z,26.73
2023-01-07T05:19:57.358Z,28.25
2023-01-07T05:22:24.183Z,17.75
2023-01-07T05:24:50.846Z,27.80
2023-01-07T05:27:17.579Z,29.38
2023-01-07T05:29:44.238Z,25.30
2023-01-07T05:32:10.885Z,16.70
2023-01-07T05:34:37.625Z,29.33
2023-01-07T05:37:04.308Z,16.95
2023-01-07T05:39:31.089Z,25.05
2023-01-07T05:41:57.720Z,25.35
2023-01-07T05:44:24.473Z,21.92
2023-01-07T05:46:51.357Z,22.05
2023-01-07T05:49:18.283Z,17.88
2023-01-07T05:51:44.947Z,19.17
2023-01-07T05:54:11.702Z,24.63
2023-01-07T05:56:38.790Z,20.15
2023-01-07T05:59:05.499Z,23.98
2023-01-07T06:01:32.294Z,17.00
2023-01-07T06:03:59.528Z,26.83
2023-01-07T06:06:26.225Z,21.27
2023-01-07T06:08:52.882Z,24.85
2023-01-07T06:11:19.628Z,21.42
2023-01-07T06:13:46.257Z,22.50
2023-01-07T06:16:13.904Z,14.68
2023-01-07T06:18:40.724Z,25.35
2023-01-07T06:21:07.636Z,22.23
2023-01-07T06:23:34.321Z,23.25
2023-01-07T06:26:01.085Z,24.35
2023-01-07T06:28:27.725Z,25.42
2023-01-07T06:30:54.510Z,19.23
2023-01-07T06:33:21.344Z,27.08
2023-01-07T06:35:48.285Z,17.10
2023-01-07T06:38:15.007Z,22.13
2023-01-07T06:40:41.738Z,18.77
2023-01-07T06:43:08.492Z,26.27
2023-01-07T06:45:35.242Z,20.80
2023-01-07T06:48:02.386Z,18.80
2023-01-07T06:50:29.170Z,16.75
2023-01-07T06:52:56.897Z,19.15
2023-01-07T06:55:23.644Z,19.75
2023-01-07T06:57:50.323Z,22.83
2023-01-07T07:00:17.243Z,21.85
2023-01-07T07:02:43.955Z,13.73
2023-01-07T07:05:11.324Z,9.75
2023-01-07T07:07:38.173Z,21.13
2023-01-07T07:10:07.471Z,27.08
2023-01-07T07:12:35.214Z,13.48
2023-01-07T07:15:02.037Z,18.58
2023-01-07T07:17:28.688Z,27.63
2023-01-07T07:19:55.389Z,9.73
2023-01-07T07:22:22.060Z,9.50
2023-01-07T07:24:48.777Z,13.85
2023-01-07T07:27:16.403Z,17.35
2023-01-07T07:29:43.067Z,12.55
2023-01-07T07:32:09.903Z,14.95
2023-01-07T07:34:36.748Z,15.90
2023-01-07T07:37:03.418Z,19.45
2023-01-07T07:39:30.126Z,19.20
2023-01-07T07:41:56.756Z,15.15
2023-01-07T07:44:23.464Z,15.32
2023-01-07T07:46:50.238Z,18.17
2023-01-07T07:49:16.919Z,18.15
2023-01-07T07:51:43.616Z,21.10
2023-01-07T07:54:10.325Z,17.00
2023-01-07T07:56:37.003Z,26.10
2023-01-07T07:59:03.906Z,14.38
2023-01-07T08:01:30.689Z,17.83
2023-01-07T08:03:57.470Z,13.85
2023-01-07T08:06:24.092Z,21.00
2023-01-07T08:08:50.851Z,22.10
2023-01-07T08:11:17.581Z,22.20
2023-01-07T08:13:44.860Z,26.83
2023-01-07T08:16:11.612Z,12.25
2023-01-07T08:18:39.853Z,11.75
2023-01-07T08:21:06.652Z,17.70
2023-01-07T08:23:34.801Z,17.55
2023-01-07T08:26:03.048Z,21.75
2023-01-07T08:28:33.719Z,22.20
2023-01-07T08:31:04.847Z,13.63
2023-01-07T08:33:36.182Z,10.25
2023-01-07T08:36:18.266Z,19.63
2023-01-07T08:38:55.598Z,11.27
2023-01-07T08:41:23.433Z,15.52
2023-01-07T08:43:50.485Z,12.43
2023-01-07T08:46:17.477Z,18.67
2023-01-07T08:48:44.147Z,12.85
2023-01-07T08:51:11.077Z,31.77
2023-01-07T08:53:37.875Z,10.25
2023-01-07T08:56:04.675Z,8.73
2023-01-07T08:58:31.743Z,8.75
2023-01-07T09:01:03.696Z,9.48
2023-01-07T09:03:30.491Z,15.20
2023-01-07T09:05:57.249Z,13.57
2023-01-07T09:08:24.038Z,9.70
2023-01-07T09:10:50.930Z,9.45
2023-01-07T09:13:17.710Z,13.98
2023-01-07T09:15:45.507Z,10.90
2023-01-07T09:18:12.214Z,22.65
2023-01-07T09:20:38.973Z,17.48
2023-01-07T09:23:05.755Z,7.25
2023-01-07T09:25:32.580Z,30.15
2023-01-07T09:27:59.264Z,31.77
2023-01-07T09:30:25.992Z,23.77
2023-01-07T09:32:52.861Z,41.60
2023-01-07T09:35:19.781Z,13.18
2023-01-07T09:37:46.443Z,23.90
2023-01-07T09:40:25.115Z,7.57
2023-01-07T09:43:02.697Z,10.27
2023-01-07T09:45:34.592Z,15.13
2023-01-07T09:48:06.590Z,14.38
2023-01-07T09:50:44.978Z,88.80
2023-01-07T09:53:48.474Z,16.13
2023-01-07T09:56:23.037Z,90.90
2023-01-07T09:58:49.772Z,20.23
2023-01-07T10:01:44.369Z,20.80
2023-01-07T10:04:17.164Z,135.65
2023-01-07T10:06:46.899Z,120.18
2023-01-07T10:09:32.325Z,67.15
2023-01-07T10:12:38.908Z,119.80
2023-01-07T10:15:39.076Z,28.52
2023-01-07T10:18:23.896Z,17.73
2023-01-07T10:21:04.845Z,55.00
2023-01-07T10:23:36.743Z,16.92
2023-01-07T10:26:04.099Z,21.27
2023-01-07T10:28:44.503Z,67.95
2023-01-07T10:31:20.895Z,44.33
2023-01-07T10:33:49.340Z,127.28
2023-01-07T10:36:26.480Z,16.55
2023-01-07T10:39:08.510Z,13.55
2023-01-07T10:41:56.395Z,20.58
2023-01-07T10:44:26.328Z,4.53
2023-01-07T10:47:30.646Z,4.18
2023-01-07T10:50:26.548Z,8.48
2023-01-07T10:53:19.172Z,7.88
2023-01-07T10:56:01.872Z,8.27
2023-01-07T10:58:38.101Z,6.72
2023-01-07T11:01:06.230Z,7.13
2023-01-07T11:03:33.949Z,10.60
2023-01-07T11:06:07.420Z,10.40
2023-01-07T11:08:39.371Z,15.95
2023-01-07T11:11:07.544Z,7.53
2023-01-07T11:13:37.864Z,9.90
2023-01-07T11:16:16.247Z,7.63
2023-01-07T11:18:48.732Z,5.35
2023-01-07T11:21:43.543Z,7.70
2023-01-07T11:24:32.550Z,7.93
2023-01-07T11:27:10.700Z,10.32
2023-01-07T11:29:43.282Z,8.63
2023-01-07T11:32:28.498Z,8.90
2023-01-07T11:35:01.556Z,9.32
2023-01-07T11:37:38.446Z,8.27
2023-01-07T11:40:20.259Z,7.32
2023-01-07T11:43:04.539Z,10.65
2023-01-07T11:46:19.297Z,9.88
2023-01-07T11:49:01.379Z,7.25
2023-01-07T11:51:41.584Z,13.70
2023-01-07T11:54:23.655Z,9.45
2023-01-07T11:56:51.642Z,6.85
2023-01-07T11:59:18.960Z,12.55
2023-01-07T12:01:51.256Z,24.23
2023-01-07T12:04:47.343Z,21.52
2023-01-07T12:07:16.401Z,9.90
2023-01-07T12:09:45.555Z,9.88
2023-01-07T12:12:35.163Z,7.95
2023-01-07T12:15:07.873Z,7.57
2023-01-07T12:17:36.220Z,9.73
2023-01-07T12:20:37.072Z,10.77
2023-01-07T12:23:09.473Z,7.53
2023-01-07T12:26:09.013Z,8.52
2023-01-07T12:29:13.363Z,8.45
2023-01-07T12:31:40.044Z,7.65
2023-01-07T12:34:45.431Z,9.02
2023-01-07T12:37:32.181Z,12.15
2023-01-07T12:40:18.638Z,14.10
2023-01-07T12:42:52.744Z,11.32
2023-01-07T12:45:28.197Z,14.38
2023-01-07T12:48:02.318Z,10.93
2023-01-07T12:50:42.453Z,11.18
2023-01-07T12:53:31.937Z,11.32
2023-01-07T12:56:07.177Z,12.90
2023-01-07T12:58:48.887Z,15.63
2023-01-07T13:03:53.527Z,12.25
2023-01-07T13:06:35.338Z,21.30
2023-01-07T13:09:24.479Z,15.13
2023-01-07T13:12:43.298Z,16.65
2023-01-07T13:15:21.910Z,13.30
2023-01-07T13:17:50.629Z,13.48
2023-01-07T13:20:33.333Z,14.52
2023-01-07T13:23:00.673Z,17.60
2023-01-07T13:26:09.056Z,21.27
2023-01-07T13:28:48.756Z,12.00
2023-01-07T13:31:52.373Z,21.33
2023-01-07T13:34:37.722Z,16.02
2023-01-07T13:37:33.381Z,13.73
2023-01-07T13:40:16.044Z,15.77
2023-01-07T13:42:50.261Z,12.27
2023-01-07T13:45:25.954Z,15.55
2023-01-07T13:47:56.104Z,12.02
2023-01-07T13:50:45.164Z,12.98
2023-01-07T13:53:15.690Z,7.05
2023-01-07T13:55:44.442Z,9.55
2023-01-07T13:58:29.170Z,9.55
2023-01-07T14:01:07.727Z,9.18
2023-01-07T14:03:45.207Z,7.40
2023-01-07T14:06:20.976Z,8.73
2023-01-07T14:08:52.254Z,10.50
2023-01-07T14:11:31.132Z,7.93
2023-01-07T14:14:07.107Z,8.18
2023-01-07T14:16:36.775Z,9.75
2023-01-07T14:19:27.173Z,5.03
2023-01-07T14:22:21.388Z,9.02
2023-01-07T14:25:28.839Z,5.05
2023-01-07T14:28:08.984Z,6.28
2023-01-07T14:30:47.114Z,5.72
2023-01-07T14:33:27.404Z,5.60
2023-01-07T14:35:58.204Z,7.05
2023-01-07T14:38:33.518Z,5.35
2023-01-07T14:41:09.693Z,6.20
2023-01-07T14:43:45.668Z,7.50
2023-01-07T14:46:24.860Z,4.18
2023-01-07T14:49:01.923Z,5.55
2023-01-07T14:52:11.584Z,4.28
2023-01-07T14:55:15.823Z,4.78
2023-01-07T14:57:53.316Z,3.75
2023-01-07T15:00:54.501Z,4.90
2023-01-07T15:03:36.154Z,5.15
2023-01-07T15:09:31.457Z,4.22
2023-01-07T15:12:20.064Z,7.15
2023-01-07T15:15:23.633Z,4.45
2023-01-07T15:17:50.327Z,3.60
2023-01-07T15:20:17.183Z,4.13
2023-01-07T15:23:23.603Z,5.38
2023-01-07T15:26:05.894Z,5.00
2023-01-07T15:28:54.778Z,4.57
2023-01-07T15:31:54.690Z,4.03
2023-01-07T15:34:21.659Z,4.93
2023-01-07T15:36:52.504Z,4.25
2023-01-07T15:39:32.141Z,4.60
2023-01-07T15:42:00.716Z,3.58
2023-01-07T15:44:37.802Z,4.45
2023-01-07T15:47:26.697Z,3.28
2023-01-07T15:49:53.522Z,2.60
2023-01-07T15:52:27.847Z,3.03
2023-01-07T15:54:54.762Z,3.85
2023-01-07T15:57:28.734Z,3.30
2023-01-07T15:59:56.724Z,3.22
2023-01-07T16:02:43.482Z,2.70
2023-01-07T16:05:10.694Z,2.72
2023-01-07T16:07:57.922Z,3.00
2023-01-07T16:10:32.484Z,2.58
2023-01-07T16:13:01.571Z,2.03
2023-01-07T16:15:37.794Z,2.17
2023-01-07T16:18:18.805Z,3.55
2023-01-07T16:20:53.338Z,2.35
2023-01-07T16:23:29.063Z,2.17
2023-01-07T16:26:09.354Z,2.33
2023-01-07T16:28:55.815Z,3.55
2023-01-07T16:31:25.104Z,3.28
2023-01-07T16:33:58.134Z,2.90
2023-01-07T16:36:32.081Z,6.90
2023-01-07T16:39:04.501Z,2.85
2023-01-07T16:41:31.526Z,4.45
2023-01-07T16:44:01.456Z,2.25
2023-01-07T16:46:34.485Z,2.42
2023-01-07T16:49:26.691Z,2.60
2023-01-07T16:52:06.385Z,1.73
2023-01-07T16:54:39.930Z,3.92
2023-01-07T16:57:33.993Z,2.75
2023-01-07T17:00:04.427Z,2.80
2023-01-07T17:02:48.900Z,9.85
2023-01-07T17:05:30.577Z,4.93
2023-01-07T17:08:06.702Z,5.75
2023-01-07T17:10:40.639Z,10.82
2023-01-07T17:13:31.747Z,27.27
2023-01-07T17:16:27.960Z,11.60
2023-01-07T17:18:55.523Z,3.15
2023-01-07T17:21:38.900Z,2.30
2023-01-07T17:24:20.471Z,2.83
2023-01-07T17:29:19.041Z,2.30
2023-01-07T17:31:46.722Z,2.58
2023-01-07T17:34:13.878Z,2.70
2023-01-07T17:36:40.574Z,3.17
2023-01-07T17:39:07.327Z,3.45
2023-01-07T17:41:54.663Z,3.33
2023-01-07T17:44:21.512Z,3.65
2023-01-07T17:46:48.326Z,3.35
2023-01-07T17:49:16.012Z,3.22
2023-01-07T17:51:45.436Z,2.53
2023-01-07T17:54:21.242Z,3.08
2023-01-07T17:56:48.458Z,2.90
2023-01-07T17:59:21.030Z,2.58
2023-01-07T18:01:48.458Z,1.92
2023-01-07T18:04:15.274Z,2.63
2023-01-07T18:06:43.004Z,3.97
2023-01-07T18:09:11.742Z,5.35
2023-01-07T18:12:00.118Z,4.65
2023-01-07T18:14:26.826Z,4.97
2023-01-07T18:16:53.572Z,2.50
2023-01-07T18:19:20.699Z,2.38
2023-01-07T18:21:47.789Z,3.55
2023-01-07T18:24:16.588Z,1.98
2023-01-07T18:26:43.835Z,2.65
2023-01-07T18:29:11.613Z,1.63
2023-01-07T18:31:43.809Z,2.83
2023-01-07T18:34:12.539Z,3.63
2023-01-07T18:36:39.611Z,2.05
2023-01-07T18:39:09.888Z,2.47
2023-01-07T18:41:39.346Z,4.57
2023-01-07T18:44:06.056Z,30.17
2023-01-07T18:46:32.843Z,3.80
2023-01-07T18:48:59.956Z,2.00
2023-01-07T18:51:26.805Z,4.00
2023-01-07T18:53:53.513Z,2.33
2023-01-07T18:56:20.337Z,3.03
2023-01-07T18:58:47.028Z,3.25
2023-01-07T19:01:13.897Z,8.40
2023-01-07T19:03:41.438Z,2.80
2023-01-07T19:06:10.367Z,2.30
2023-01-07T19:08:38.189Z,4.35
2023-01-07T19:11:13.983Z,3.17
2023-01-07T19:13:41.276Z,2.63
2023-01-07T19:16:10.257Z,3.78
2023-01-07T19:18:37.321Z,3.22
2023-01-07T19:21:05.724Z,4.57
2023-01-07T19:23:32.714Z,2.05
2023-01-07T19:26:01.065Z,2.78
2023-01-07T19:28:27.939Z,2.17
2023-01-07T19:30:55.534Z,2.00
2023-01-07T19:33:22.271Z,2.38
2023-01-07T19:35:49.096Z,2.17
2023-01-07T19:38:16.489Z,2.15
2023-01-07T19:40:44.041Z,2.40
2023-01-07T19:43:14.243Z,2.63
2023-01-07T19:45:41.280Z,2.38
2023-01-07T19:48:07.938Z,2.85
2023-01-07T19:50:34.680Z,2.20
2023-01-07T19:53:01.335Z,2.00
2023-01-07T19:55:28.153Z,3.28
2023-01-07T19:57:55.786Z,3.15
2023-01-07T20:00:22.724Z,1.73
2023-01-07T20:02:49.523Z,2.83
2023-01-07T20:05:16.259Z,2.17
2023-01-07T20:07:43.169Z,1.98
2023-01-07T20:10:11.177Z,1.85
2023-01-07T20:12:37.834Z,2.30
2023-01-07T20:15:04.819Z,1.77
2023-01-07T20:17:31.464Z,2.40
2023-01-07T20:19:58.196Z,2.70
2023-01-07T20:22:24.840Z,3.88
2023-01-07T20:24:51.464Z,1.55
2023-01-07T20:27:18.153Z,1.55
2023-01-07T20:29:45.750Z,2.08
2023-01-07T20:32:12.600Z,1.58
2023-01-07T20:34:39.248Z,1.67
2023-01-07T20:37:05.923Z,3.28
2023-01-07T20:39:32.637Z,2.15
2023-01-07T20:41:59.277Z,1.52
2023-01-07T20:44:25.973Z,1.58
2023-01-07T20:46:52.631Z,2.92
2023-01-07T20:49:19.313Z,1.20
2023-01-07T20:51:46.090Z,2.28
2023-01-07T20:54:13.635Z,2.55
2023-01-07T20:56:40.549Z,1.45
2023-01-07T20:59:07.462Z,1.80
2023-01-07T21:01:34.479Z,1.83
2023-01-07T21:04:02.007Z,2.08
2023-01-07T21:06:28.742Z,2.95
2023-01-07T21:08:55.448Z,2.22
2023-01-07T21:11:23.700Z,1.70
2023-01-07T21:13:52.910Z,2.55
2023-01-07T21:16:19.781Z,2.58
2023-01-07T21:18:47.095Z,2.53
2023-01-07T21:21:16.631Z,2.10
2023-01-07T21:23:43.439Z,3.10
2023-01-07T21:26:12.839Z,2.30
2023-01-07T21:28:39.582Z,3.13
2023-01-07T21:31:09.545Z,2.00
2023-01-07T21:33:37.099Z,3.28
2023-01-07T21:36:17.972Z,3.92
2023-01-07T21:38:46.164Z,6.30
2023-01-07T21:41:15.200Z,4.05
2023-01-07T21:43:43.067Z,5.20
2023-01-07T21:46:09.807Z,6.50
2023-01-07T21:48:38.723Z,3.13
2023-01-07T21:51:08.808Z,5.63
2023-01-07T21:53:36.230Z,5.63
2023-01-07T21:56:08.690Z,7.35
2023-01-07T21:58:36.792Z,3.85
2023-01-07T22:01:05.248Z,4.25
2023-01-07T22:03:32.509Z,4.30
2023-01-07T22:06:02.829Z,5.43
2023-01-07T22:08:29.878Z,4.82
2023-01-07T22:10:56.610Z,3.60
2023-01-07T22:13:23.761Z,2.80
2023-01-07T22:15:50.564Z,4.53
2023-01-07T22:18:17.513Z,3.90
2023-01-07T22:20:44.186Z,4.47
2023-01-07T22:23:19.821Z,3.05
2023-01-07T22:25:46.506Z,4.25
2023-01-07T22:28:16.430Z,9.05
2023-01-07T22:30:50.300Z,3.88
2023-01-07T22:33:16.986Z,2.80
2023-01-07T22:35:44.202Z,3.55
2023-01-07T22:38:12.857Z,3.45
2023-01-07T22:40:40.070Z,3.92
2023-01-07T22:43:09.501Z,4.28
2023-01-07T22:45:49.304Z,4.22
2023-01-07T22:48:18.171Z,4.88
2023-01-07T22:50:44.839Z,3.78
2023-01-07T22:53:11.967Z,3.95
2023-01-07T22:55:40.715Z,5.45
2023-01-07T22:58:07.668Z,5.53
2023-01-07T23:00:46.213Z,7.82
2023-01-07T23:03:12.956Z,5.65
2023-01-07T23:05:39.801Z,6.60
2023-01-07T23:08:06.996Z,4.88
2023-01-07T23:10:35.113Z,5.50
2023-01-07T23:13:01.800Z,4.20
2023-01-07T23:15:28.437Z,4.57
2023-01-07T23:17:55.344Z,6.95
2023-01-07T23:20:22.404Z,6.43
2023-01-07T23:22:49.073Z,6.78
2023-01-07T23:25:15.857Z,4.57
2023-01-07T23:27:42.538Z,6.20
2023-01-07T23:30:10.194Z,5.20
2023-01-07T23:32:36.900Z,2.90
2023-01-07T23:35:03.927Z,4.45
2023-01-07T23:37:30.661Z,5.30
2023-01-07T23:39:57.706Z,6.75
2023-01-07T23:42:24.454Z,7.47
2023-01-07T23:44:51.127Z,6.82
2023-01-07T23:47:17.800Z,4.22
2023-01-07T23:49:44.444Z,5.55
2023-01-07T23:52:11.209Z,4.90
2023-01-07T23:54:38.019Z,6.15
2023-01-07T23:57:04.678Z,5.20
2023-01-07T23:59:31.416Z,5.05
